CST,Max TemperatureF,Mean TemperatureF,Min TemperatureF,Max Dew PointF,MeanDew PointF,Min DewpointF,Max Humidity, Mean Humidity, Min Humidity, Max Sea Level PressureIn, Mean Sea Level PressureIn, Min Sea Level PressureIn, Max VisibilityMiles, Mean VisibilityMiles, Min VisibilityMiles, Max Wind SpeedMPH, Mean Wind SpeedMPH, Max Gust SpeedMPH,PrecipitationIn, CloudCover, Events, WindDirDegrees
2014-1-1,19,15,11,12,9,5,88,78,67,30.30,30.19,30.12,10,6,1,22,13,27,0.18,5,Snow,21
2014-1-2,16,5,-6,4,0,-10,80,66,51,30.54,30.41,30.23,10,10,6,18,8,25,T,4,Snow,329
2014-1-3,30,11,-8,16,5,-13,83,67,50,30.52,30.20,29.84,10,10,10,24,13,32,0.00,1,,178
2014-1-4,36,26,15,23,16,10,88,72,56,30.11,29.96,29.81,10,5,1,22,11,29,0.14,6,Snow,319
2014-1-5,15,4,-7,10,0,-20,88,65,41,30.47,30.18,30.04,10,5,0,29,18,39,0.10,6,Snow,349
2014-1-6,7,-2,-12,-15,-19,-23,56,46,35,30.54,30.48,30.39,10,9,2,22,13,29,0.00,1,Snow,278
2014-1-7,21,10,-2,-5,-11,-15,60,44,28,30.44,30.24,30.10,10,10,10,12,6,,0.00,3,,214
2014-1-8,14,13,12,9,8,7,84,79,73,30.43,30.37,30.23,10,5,0,12,7,,0.11,7,Snow,44
2014-1-9,30,20,10,28,16,3,100,84,67,30.45,30.25,30.08,10,4,0,13,7,15,0.02,8,Fog-Snow,123
2014-1-10,41,36,30,39,34,28,100,96,92,30.09,29.74,29.53,7,2,0,16,9,20,0.12,8,Fog-Rain,170
2014-1-11,42,35,27,33,29,24,96,78,60,29.93,29.72,29.56,10,7,3,20,11,26,0.00,4,,269
2014-1-12,60,44,28,34,30,26,92,64,36,29.89,29.68,29.54,10,10,10,22,9,31,0.00,0,,210
2014-1-13,45,37,28,33,28,23,92,75,57,29.88,29.77,29.60,10,10,10,17,9,23,0.00,2,,275
2014-1-14,40,32,23,32,20,10,75,61,47,30.16,29.95,29.72,10,10,10,29,16,42,0.01,5,Rain,291
2014-1-15,30,21,12,13,9,6,76,61,46,30.25,30.13,29.86,10,10,10,22,10,31,T,4,,274
2014-1-16,44,28,11,30,24,10,89,67,45,29.99,29.80,29.70,10,6,0,33,16,49,0.02,6,Fog-Rain-Snow,280
2014-1-17,23,17,11,10,7,2,76,65,54,30.14,30.05,29.94,10,8,2,21,11,28,T,5,Snow,290
2014-1-18,45,28,10,34,21,6,85,67,49,30.09,29.80,29.60,10,8,1,26,13,38,0.01,7,Rain-Snow,274
2014-1-19,55,36,17,26,21,12,84,58,32,30.07,29.88,29.72,10,10,8,21,12,30,0.00,0,,237
2014-1-20,46,32,17,30,25,13,92,73,53,30.21,30.00,29.81,10,7,0,30,11,42,0.01,4,Fog-Snow,306
2014-1-21,17,9,1,9,0,-8,80,64,48,30.50,30.34,30.19,10,8,2,29,10,39,T,5,Snow,324
2014-1-22,29,15,0,12,6,-10,73,60,46,30.51,30.18,30.02,10,9,3,26,13,39,T,6,Snow,297
2014-1-23,13,5,-4,-6,-9,-12,72,57,42,30.82,30.71,30.47,10,10,5,18,9,23,0.00,0,,304
2014-1-24,41,22,2,19,3,-6,75,52,29,30.65,30.13,29.69,10,10,10,30,16,41,0.00,3,,227
2014-1-25,44,33,21,35,15,-5,92,57,21,30.00,29.86,29.66,10,9,2,29,13,38,0.02,5,Snow,302
2014-1-26,54,33,11,30,18,-9,64,49,34,30.19,29.73,29.55,10,10,3,36,19,53,T,4,Rain-Snow,287
2014-1-27,13,5,-4,-8,-11,-13,79,57,34,30.57,30.46,30.22,10,10,10,29,11,39,0.00,0,,315
2014-1-28,19,6,-7,-5,-8,-12,82,58,33,30.57,30.47,30.35,10,10,10,17,6,24,0.00,0,,252
2014-1-29,38,20,1,10,4,-5,83,55,27,30.34,30.18,29.93,10,10,10,21,12,30,0.00,0,,211
2014-1-30,40,32,23,22,14,8,69,51,32,30.05,29.83,29.69,10,10,10,28,15,37,0.01,1,Rain,238
2014-1-31,23,18,13,13,10,4,88,72,56,30.22,30.11,30.01,10,5,0,15,10,18,0.11,8,Fog-Snow,34